Time;durP1;ratioP1;P1;durP2;ratioP2;P2;SDS_P1;SDS_P2;PMS_P1;PMS_P2;Temp;Humidity;BMP_temperature;BMP_pressure;BME280_temperature;BME280_humidity;BME280_pressure;Samples;Min_cycle;Max_cycle;Signal;HPM_P1;HPM_P2
2022/02/19 00:00:31;;;;;;;22.80;3.30;;;6.50;99.90;;;;;;5081058;28;39307;-77
2022/02/19 00:02:57;;;;;;;22.00;3.70;;;6.50;99.90;;;;;;5085171;27;38117;-79
2022/02/19 00:05:24;;;;;;;19.03;2.73;;;6.50;99.90;;;;;;5081270;28;39726;-80
2022/02/19 00:07:51;;;;;;;19.97;3.37;;;6.40;99.90;;;;;;5094877;27;37280;-77
2022/02/19 00:10:18;;;;;;;18.23;2.87;;;6.40;99.90;;;;;;5077994;27;39451;-80
2022/02/19 00:12:44;;;;;;;20.47;3.33;;;6.30;99.90;;;;;;5088681;27;39296;-79
2022/02/19 00:15:10;;;;;;;17.90;2.53;;;6.40;99.90;;;;;;5074782;27;38802;-79
2022/02/19 00:17:36;;;;;;;18.73;2.73;;;6.30;99.90;;;;;;5090016;27;37133;-79
2022/02/19 00:20:04;;;;;;;21.80;3.97;;;6.30;99.90;;;;;;5076809;28;38347;-76
2022/02/19 00:22:31;;;;;;;20.07;3.07;;;6.20;99.90;;;;;;5086234;27;38657;-78
2022/02/19 00:24:57;;;;;;;19.30;2.83;;;6.30;99.90;;;;;;5085676;27;38370;-78
2022/02/19 00:27:23;;;;;;;21.33;3.20;;;6.30;99.90;;;;;;5082164;27;37137;-78
2022/02/19 00:29:49;;;;;;;16.53;3.03;;;6.40;99.90;;;;;;5083571;27;38588;-78
2022/02/19 00:32:15;;;;;;;17.80;2.13;;;6.50;99.90;;;;;;5092689;27;38337;-78
2022/02/19 00:34:41;;;;;;;14.67;2.80;;;6.50;99.90;;;;;;5086575;28;39203;-78
2022/02/19 00:37:07;;;;;;;15.63;2.70;;;6.60;99.90;;;;;;5080535;28;37868;-77
2022/02/19 00:39:35;;;;;;;15.30;2.53;;;6.60;99.90;;;;;;5080617;27;39408;-77
2022/02/19 00:42:02;;;;;;;17.00;2.30;;;6.50;99.90;;;;;;5090085;27;38845;-77
2022/02/19 00:44:30;;;;;;;15.20;3.47;;;6.60;99.90;;;;;;5082048;28;39539;-77
2022/02/19 00:46:57;;;;;;;13.30;2.50;;;6.60;99.90;;;;;;5077173;28;37838;-77
2022/02/19 00:49:23;;;;;;;15.47;2.33;;;6.60;99.90;;;;;;5089519;27;39490;-78
2022/02/19 00:51:50;;;;;;;14.97;2.17;;;6.60;99.90;;;;;;5084176;27;38079;-77
2022/02/19 00:54:16;;;;;;;14.87;2.53;;;6.50;99.90;;;;;;5086612;27;39092;-77
2022/02/19 00:56:42;;;;;;;15.33;2.03;;;6.40;99.90;;;;;;5084443;27;37386;-77
2022/02/19 00:59:09;;;;;;;17.20;2.73;;;6.30;99.90;;;;;;5079701;27;40553;-77
2022/02/19 01:01:37;;;;;;;11.30;2.23;;;6.40;99.90;;;;;;5080958;28;39580;-77
2022/02/19 01:04:03;;;;;;;11.53;2.30;;;6.40;99.90;;;;;;5093582;27;37227;-76
2022/02/19 01:06:31;;;;;;;16.63;2.03;;;6.30;99.90;;;;;;5072592;28;37708;-77
2022/02/19 01:08:57;;;;;;;16.70;3.27;;;6.30;99.90;;;;;;5085879;27;38589;-77
2022/02/19 01:11:23;;;;;;;14.43;2.77;;;6.30;99.90;;;;;;5080493;27;38811;-80
2022/02/19 01:13:49;;;;;;;14.87;2.43;;;6.40;99.90;;;;;;5083769;28;38853;-79
2022/02/19 01:16:17;;;;;;;16.50;3.07;;;6.50;99.90;;;;;;5078285;27;39196;-77
2022/02/19 01:18:43;;;;;;;15.60;2.57;;;6.60;99.90;;;;;;5082412;28;40599;-77
2022/02/19 01:21:09;;;;;;;20.43;3.20;;;6.60;99.90;;;;;;5089462;27;38703;-77
2022/02/19 01:23:35;;;;;;;12.33;2.07;;;6.60;99.90;;;;;;5084333;27;38084;-77
2022/02/19 01:26:02;;;;;;;17.07;2.23;;;6.60;99.90;;;;;;5079198;27;38649;-79
2022/02/19 01:28:30;;;;;;;14.93;3.20;;;6.60;99.90;;;;;;5089643;27;36963;-78
2022/02/19 01:30:58;;;;;;;16.77;3.10;;;6.50;99.90;;;;;;5085287;28;39475;-77
2022/02/19 01:33:24;;;;;;;15.23;2.27;;;6.50;99.90;;;;;;5086312;27;38149;-78
2022/02/19 01:35:50;;;;;;;12.07;2.20;;;6.50;99.90;;;;;;5088443;27;38723;-79
2022/02/19 01:38:17;;;;;;;13.70;2.40;;;6.40;99.90;;;;;;5087426;27;39236;-77
2022/02/19 01:40:44;;;;;;;15.33;2.07;;;6.50;99.90;;;;;;5080160;28;39923;-77
2022/02/19 01:43:11;;;;;;;16.73;2.17;;;6.50;99.90;;;;;;5084102;27;38191;-78
2022/02/19 01:45:38;;;;;;;17.63;2.23;;;6.50;99.90;;;;;;5082501;27;37312;-78
2022/02/19 01:48:04;;;;;;;19.83;2.60;;;6.50;99.90;;;;;;5079716;28;39663;-77
2022/02/19 01:50:31;;;;;;;14.23;2.47;;;6.50;99.90;;;;;;5088479;27;38245;-77
2022/02/19 01:52:58;;;;;;;14.83;2.90;;;6.50;99.90;;;;;;5091640;28;38649;-77
2022/02/19 01:55:24;;;;;;;20.13;2.80;;;6.60;99.90;;;;;;5080540;27;40436;-77
2022/02/19 01:57:51;;;;;;;19.70;3.10;;;6.50;99.90;;;;;;5083718;27;39467;-77
2022/02/19 02:00:17;;;;;;;16.30;3.23;;;6.50;99.90;;;;;;5073922;28;38354;-78
2022/02/19 02:02:43;;;;;;;15.33;2.90;;;6.60;99.90;;;;;;5085438;27;38092;-77
2022/02/19 02:05:09;;;;;;;15.53;2.83;;;6.60;99.90;;;;;;5082500;28;38600;-78
2022/02/19 02:07:36;;;;;;;17.10;2.43;;;6.50;99.90;;;;;;5079583;28;40460;-77
2022/02/19 02:10:03;;;;;;;24.10;3.80;;;6.40;99.90;;;;;;5081003;27;39212;-77
2022/02/19 02:12:29;;;;;;;18.03;3.30;;;6.40;99.90;;;;;;5083051;28;47273;-77
2022/02/19 02:14:55;;;;;;;13.87;2.37;;;6.30;99.90;;;;;;5081846;28;38694;-79
2022/02/19 02:17:21;;;;;;;22.37;2.97;;;6.30;99.90;;;;;;5090608;28;38483;-78
2022/02/19 02:19:47;;;;;;;15.47;3.43;;;6.40;99.90;;;;;;5078718;28;40035;-79
2022/02/19 02:22:15;;;;;;;18.80;2.67;;;6.30;99.90;;;;;;5077131;27;39913;-79
2022/02/19 02:24:42;;;;;;;25.10;3.20;;;6.30;99.90;;;;;;5091423;27;36202;-78
2022/02/19 02:27:13;;;;;;;14.13;3.00;;;6.40;99.90;;;;;;5097754;27;39729;-77
2022/02/19 02:29:47;;;;;;;18.43;3.30;;;6.40;99.90;;;;;;5085267;28;38632;-78
2022/02/19 02:32:14;;;;;;;16.77;2.60;;;6.40;99.90;;;;;;5077896;28;39561;-78
2022/02/19 02:34:51;;;;;;;26.13;3.53;;;6.40;99.90;;;;;;5092597;27;38242;-77
2022/02/19 02:37:17;;;;;;;20.83;3.20;;;6.40;99.90;;;;;;5085851;28;38694;-78
2022/02/19 02:39:46;;;;;;;15.60;2.60;;;6.40;99.90;;;;;;5087761;28;38678;-78
2022/02/19 02:42:14;;;;;;;25.17;3.30;;;6.40;99.90;;;;;;5083128;27;39308;-77
2022/02/19 02:44:40;;;;;;;22.87;2.83;;;6.40;99.90;;;;;;5080212;27;37164;-77
2022/02/19 02:47:07;;;;;;;19.53;3.10;;;6.40;99.90;;;;;;5078483;27;40156;-78
2022/02/19 02:49:34;;;;;;;21.53;2.50;;;6.40;99.90;;;;;;5082689;28;37961;-79
2022/02/19 02:52:00;;;;;;;16.23;2.67;;;6.40;99.90;;;;;;5079054;27;38112;-78
2022/02/19 02:54:26;;;;;;;19.90;3.10;;;6.40;99.90;;;;;;5063878;28;37754;-78
2022/02/19 02:56:52;;;;;;;16.63;2.63;;;6.30;99.90;;;;;;5078878;28;40429;-77
2022/02/19 02:59:18;;;;;;;21.07;3.40;;;6.30;99.90;;;;;;5072768;27;40220;-78
2022/02/19 03:01:45;;;;;;;16.03;2.73;;;6.20;99.90;;;;;;5076580;27;38897;-77
2022/02/19 03:04:11;;;;;;;21.63;3.97;;;6.20;99.90;;;;;;5084848;27;38693;-77
2022/02/19 03:06:37;;;;;;;21.20;3.13;;;6.10;99.90;;;;;;5078790;27;38454;-79
2022/02/19 03:09:04;;;;;;;14.53;3.37;;;6.10;99.90;;;;;;5084881;27;38547;-79
2022/02/19 03:11:30;;;;;;;14.97;2.30;;;6.10;99.90;;;;;;5083074;28;38301;-79
2022/02/19 03:13:56;;;;;;;19.27;2.70;;;6.10;99.90;;;;;;5083858;28;37530;-79
2022/02/19 03:16:22;;;;;;;15.03;2.77;;;6.10;99.90;;;;;;5078409;27;39915;-77
2022/02/19 03:18:48;;;;;;;20.00;4.20;;;6.00;99.90;;;;;;5089593;27;38564;-77
2022/02/19 03:21:14;;;;;;;16.87;2.90;;;6.00;99.90;;;;;;5067398;27;37903;-77
2022/02/19 03:23:40;;;;;;;18.23;3.20;;;6.00;99.90;;;;;;5081838;28;37827;-79
2022/02/19 03:26:07;;;;;;;14.57;2.70;;;6.00;99.90;;;;;;5078113;27;38224;-77
2022/02/19 03:28:34;;;;;;;18.80;3.40;;;6.10;99.90;;;;;;5079484;27;38593;-77
2022/02/19 03:31:00;;;;;;;18.17;2.53;;;6.20;99.90;;;;;;5085634;27;41176;-77
2022/02/19 03:33:26;;;;;;;14.83;3.17;;;6.30;99.90;;;;;;5088471;27;37162;-80
2022/02/19 03:35:54;;;;;;;23.40;2.83;;;6.30;99.90;;;;;;5089226;27;39574;-77
2022/02/19 03:38:21;;;;;;;22.43;3.17;;;6.40;99.90;;;;;;5086804;27;38400;-77
2022/02/19 03:40:47;;;;;;;22.37;2.80;;;6.40;99.90;;;;;;5085711;27;36889;-78
2022/02/19 03:43:13;;;;;;;15.27;2.73;;;6.40;99.90;;;;;;5082829;27;38469;-77
2022/02/19 03:45:43;;;;;;;19.07;3.40;;;6.40;99.90;;;;;;5081591;28;39023;-77
2022/02/19 03:48:10;;;;;;;17.00;3.30;;;6.40;99.90;;;;;;5092529;27;37315;-78
2022/02/19 03:50:37;;;;;;;19.73;2.70;;;6.40;99.90;;;;;;5081870;27;38066;-77
2022/02/19 03:53:04;;;;;;;16.23;3.43;;;6.40;99.90;;;;;;5078159;27;36755;-76
2022/02/19 03:55:30;;;;;;;21.90;3.10;;;6.40;99.90;;;;;;5085094;28;37645;-78
2022/02/19 03:57:57;;;;;;;19.03;3.03;;;6.40;99.90;;;;;;5089197;28;37612;-77
2022/02/19 04:00:23;;;;;;;9.50;2.40;;;6.40;99.90;;;;;;5086136;27;38744;-78
2022/02/19 04:02:49;;;;;;;15.30;3.10;;;6.40;99.90;;;;;;5088120;27;37431;-78
2022/02/19 04:05:16;;;;;;;20.37;3.13;;;6.40;99.90;;;;;;5083554;27;37724;-79
2022/02/19 04:07:42;;;;;;;19.33;4.10;;;6.40;99.90;;;;;;5081129;28;39313;-77
2022/02/19 04:10:09;;;;;;;15.50;3.43;;;6.40;99.90;;;;;;5087388;27;36997;-77
2022/02/19 04:12:35;;;;;;;18.63;2.93;;;6.40;99.90;;;;;;5086952;27;37579;-78
2022/02/19 04:15:03;;;;;;;18.13;3.07;;;6.40;99.90;;;;;;5082757;27;37888;-76
2022/02/19 04:17:29;;;;;;;15.97;2.37;;;6.30;99.90;;;;;;5086667;27;38445;-78
2022/02/19 04:19:55;;;;;;;12.67;2.40;;;6.30;99.90;;;;;;5081136;27;36882;-77
2022/02/19 04:22:22;;;;;;;15.13;2.67;;;6.20;99.90;;;;;;5088160;27;36101;-78
2022/02/19 04:24:49;;;;;;;14.00;2.43;;;6.30;99.90;;;;;;5076393;28;39358;-78
2022/02/19 04:27:17;;;;;;;16.80;2.83;;;6.30;99.90;;;;;;5083075;28;37315;-77
2022/02/19 04:29:43;;;;;;;14.93;2.43;;;6.30;99.90;;;;;;5083362;27;38809;-78
2022/02/19 04:32:10;;;;;;;20.00;3.33;;;6.30;99.90;;;;;;5081534;27;37213;-77
2022/02/19 04:34:37;;;;;;;17.60;2.97;;;6.30;99.90;;;;;;5082374;27;39475;-77
2022/02/19 04:37:04;;;;;;;13.20;2.60;;;6.30;99.90;;;;;;5081474;27;39169;-77
2022/02/19 04:39:30;;;;;;;15.87;2.27;;;6.30;99.90;;;;;;5079429;28;38885;-77
2022/02/19 04:41:56;;;;;;;16.07;2.47;;;6.20;99.90;;;;;;5086198;27;36771;-77
2022/02/19 04:44:22;;;;;;;17.97;2.00;;;6.20;99.90;;;;;;5078699;27;38605;-77
2022/02/19 04:46:48;;;;;;;16.73;3.43;;;6.10;99.90;;;;;;5079749;28;39809;-77
2022/02/19 04:49:14;;;;;;;25.30;2.80;;;6.00;99.90;;;;;;5079531;28;39555;-78
2022/02/19 04:51:41;;;;;;;23.57;2.87;;;6.00;99.90;;;;;;5080812;27;37262;-77
2022/02/19 04:54:07;;;;;;;15.20;2.37;;;6.00;99.90;;;;;;5083008;27;39388;-77
2022/02/19 04:56:33;;;;;;;19.33;3.10;;;6.00;99.90;;;;;;5086398;28;37600;-77
2022/02/19 04:59:00;;;;;;;19.30;2.67;;;5.90;99.90;;;;;;5078675;28;39737;-78
2022/02/19 05:01:26;;;;;;;18.27;2.80;;;5.90;99.90;;;;;;5084605;28;37565;-77
2022/02/19 05:03:56;;;;;;;19.90;2.47;;;5.90;99.90;;;;;;5080584;27;39539;-76
2022/02/19 05:06:23;;;;;;;12.70;2.13;;;5.90;99.90;;;;;;5090711;27;38348;-77
2022/02/19 05:08:49;;;;;;;16.27;2.07;;;5.90;99.90;;;;;;5080727;28;39529;-78
2022/02/19 05:11:15;;;;;;;11.70;2.10;;;5.80;99.90;;;;;;5069432;27;39080;-77
2022/02/19 05:13:41;;;;;;;26.03;3.03;;;5.80;99.90;;;;;;5094670;27;38906;-77
2022/02/19 05:16:07;;;;;;;24.30;2.80;;;5.90;99.90;;;;;;5085718;27;38683;-77
2022/02/19 05:18:34;;;;;;;16.77;2.83;;;5.90;99.90;;;;;;5088936;27;39125;-77
2022/02/19 05:21:00;;;;;;;13.53;2.47;;;5.90;99.90;;;;;;5072560;28;38397;-77
2022/02/19 05:23:26;;;;;;;12.30;2.50;;;5.90;99.90;;;;;;5081137;27;39417;-78
2022/02/19 05:25:52;;;;;;;22.37;2.83;;;5.90;99.90;;;;;;5079193;28;39673;-77
2022/02/19 05:28:18;;;;;;;18.10;2.93;;;5.90;99.90;;;;;;5080689;27;39136;-77
2022/02/19 05:30:44;;;;;;;13.17;2.43;;;5.90;99.90;;;;;;5082175;28;38982;-77
2022/02/19 05:33:10;;;;;;;21.23;2.90;;;5.90;99.90;;;;;;5072083;28;36964;-78
2022/02/19 05:35:36;;;;;;;20.33;2.63;;;5.90;99.90;;;;;;5083609;27;38907;-77
2022/02/19 05:38:03;;;;;;;17.07;2.60;;;6.00;99.90;;;;;;5083896;27;37124;-76
2022/02/19 05:40:29;;;;;;;18.83;3.73;;;5.90;99.90;;;;;;5075582;27;36824;-77
2022/02/19 05:42:55;;;;;;;16.40;2.63;;;5.90;99.90;;;;;;5083453;27;38496;-77
2022/02/19 05:45:21;;;;;;;17.00;3.07;;;5.80;99.90;;;;;;5082019;28;39069;-77
2022/02/19 05:47:47;;;;;;;21.00;2.87;;;5.80;99.90;;;;;;5081442;27;38590;-78
2022/02/19 05:50:13;;;;;;;18.00;2.40;;;5.90;99.90;;;;;;5074471;28;36843;-77
2022/02/19 05:52:39;;;;;;;14.50;2.60;;;5.80;99.90;;;;;;5077211;28;39714;-77
2022/02/19 05:55:06;;;;;;;14.80;2.43;;;5.80;99.90;;;;;;5082034;27;38538;-77
2022/02/19 05:57:32;;;;;;;21.17;2.70;;;5.70;99.90;;;;;;5091552;27;37700;-77
2022/02/19 05:59:58;;;;;;;15.60;4.00;;;5.80;99.90;;;;;;5080373;27;37754;-78
2022/02/19 06:02:24;;;;;;;17.80;2.10;;;5.80;99.90;;;;;;5075501;27;40606;-78
2022/02/19 06:04:50;;;;;;;19.07;2.57;;;5.70;99.90;;;;;;5082123;27;39950;-78
2022/02/19 06:07:16;;;;;;;20.53;2.80;;;5.70;99.90;;;;;;5075196;28;38959;-78
2022/02/19 06:09:42;;;;;;;13.83;2.80;;;5.80;99.90;;;;;;5086388;27;36949;-77
2022/02/19 06:12:09;;;;;;;17.07;2.47;;;5.80;99.90;;;;;;5088156;27;40646;-77
2022/02/19 06:14:35;;;;;;;19.70;2.30;;;5.70;99.90;;;;;;5067994;28;38832;-78
2022/02/19 06:17:03;;;;;;;14.93;2.50;;;5.80;99.90;;;;;;5088903;27;37986;-77
2022/02/19 06:19:29;;;;;;;14.17;2.50;;;5.70;99.90;;;;;;5089378;27;49158;-77
2022/02/19 06:21:55;;;;;;;14.57;2.77;;;5.80;99.90;;;;;;5080051;27;38739;-77
2022/02/19 06:24:21;;;;;;;12.57;2.60;;;5.70;99.90;;;;;;5076508;27;38420;-77
2022/02/19 06:26:47;;;;;;;19.33;2.97;;;5.70;99.90;;;;;;5082649;28;37088;-77
2022/02/19 06:29:13;;;;;;;19.37;2.97;;;5.70;99.90;;;;;;5087786;27;36895;-77
2022/02/19 06:31:39;;;;;;;20.53;2.83;;;5.70;99.90;;;;;;5079336;27;38752;-78
2022/02/19 06:34:05;;;;;;;13.93;3.27;;;5.80;99.90;;;;;;5078812;27;39226;-77
2022/02/19 06:36:31;;;;;;;15.63;2.47;;;5.80;99.90;;;;;;5083658;28;38758;-77
2022/02/19 06:38:58;;;;;;;15.10;2.30;;;5.80;99.90;;;;;;5087695;27;38656;-76
2022/02/19 06:41:24;;;;;;;18.23;2.97;;;5.90;99.90;;;;;;5084550;27;39565;-77
2022/02/19 06:43:50;;;;;;;13.73;3.00;;;5.90;99.90;;;;;;5083160;27;38310;-77
2022/02/19 06:46:16;;;;;;;19.13;2.23;;;5.90;99.90;;;;;;5099441;27;37721;-76
2022/02/19 06:48:42;;;;;;;12.83;2.33;;;5.90;99.90;;;;;;5082594;27;38498;-76
2022/02/19 06:51:08;;;;;;;16.47;2.47;;;5.90;99.90;;;;;;5074207;27;39699;-76
2022/02/19 06:53:34;;;;;;;18.33;2.60;;;5.80;99.90;;;;;;5080083;28;38640;-76
2022/02/19 06:56:00;;;;;;;12.57;1.73;;;5.80;99.90;;;;;;5080986;28;38757;-77
2022/02/19 06:58:26;;;;;;;18.13;3.10;;;5.80;99.90;;;;;;5049851;28;39735;-78
2022/02/19 07:00:53;;;;;;;15.23;2.10;;;5.90;99.90;;;;;;5059640;27;39090;-77
2022/02/19 07:03:20;;;;;;;16.27;2.80;;;5.90;99.90;;;;;;5050517;28;39281;-77
2022/02/19 07:05:51;;;;;;;19.17;2.70;;;5.90;99.90;;;;;;5060297;28;38030;-75
2022/02/19 07:08:19;;;;;;;8.60;2.00;;;5.80;99.90;;;;;;5053856;28;37168;-76
2022/02/19 07:10:45;;;;;;;14.37;2.80;;;5.80;99.90;;;;;;5054133;28;39633;-76
2022/02/19 07:13:11;;;;;;;19.00;2.67;;;5.80;99.90;;;;;;5065464;28;38324;-76
2022/02/19 07:15:38;;;;;;;16.27;3.00;;;5.80;99.90;;;;;;5061770;28;38289;-76
2022/02/19 07:18:04;;;;;;;13.83;2.30;;;5.70;99.90;;;;;;5052252;28;38932;-76
2022/02/19 07:20:35;;;;;;;13.97;2.43;;;5.70;99.90;;;;;;5069453;28;38161;-76
2022/02/19 07:23:02;;;;;;;13.15;2.50;;;5.80;99.90;;;;;;5063586;27;39094;-76
2022/02/19 07:25:28;;;;;;;13.10;2.07;;;5.80;99.90;;;;;;5059100;28;38040;-77
2022/02/19 07:27:54;;;;;;;9.83;2.10;;;5.80;99.90;;;;;;5062935;28;37613;-77
2022/02/19 07:30:21;;;;;;;10.90;2.23;;;5.80;99.90;;;;;;5065034;28;40388;-77
2022/02/19 07:32:53;;;;;;;16.93;2.73;;;5.90;99.90;;;;;;5067135;28;37384;-76
2022/02/19 07:35:21;;;;;;;16.33;2.50;;;5.90;99.90;;;;;;5061543;28;39151;-77
2022/02/19 07:37:47;;;;;;;12.13;2.77;;;6.00;99.90;;;;;;5064078;27;37811;-76
2022/02/19 07:40:14;;;;;;;18.63;2.63;;;6.00;99.90;;;;;;5060366;28;40754;-78
2022/02/19 07:42:40;;;;;;;14.53;2.13;;;6.00;99.90;;;;;;5068819;28;39140;-79
2022/02/19 07:45:06;;;;;;;16.87;2.67;;;5.90;99.90;;;;;;5066793;28;37806;-79
2022/02/19 07:47:33;;;;;;;10.77;2.07;;;5.90;99.90;;;;;;5061518;28;37101;-78
2022/02/19 07:58:18;;;;;;;22.90;2.53;;;6.10;99.90;;;;;;5078965;27;37895;-78
2022/02/19 08:00:47;;;;;;;14.63;2.13;;;6.10;99.90;;;;;;5082096;28;38656;-77
2022/02/19 08:03:15;;;;;;;20.77;2.30;;;6.20;99.90;;;;;;5080684;27;39156;-79
2022/02/19 08:05:42;;;;;;;20.43;2.37;;;6.30;99.90;;;;;;5086933;28;38077;-77
2022/02/19 08:08:08;;;;;;;13.00;2.13;;;6.50;99.90;;;;;;5093502;27;35220;-79
2022/02/19 08:10:36;;;;;;;17.73;2.50;;;6.50;99.90;;;;;;5073070;28;39261;-79
2022/02/19 08:13:04;;;;;;;16.23;3.10;;;6.50;99.90;;;;;;5074809;27;41034;-79
2022/02/19 08:15:31;;;;;;;21.03;3.27;;;6.40;99.90;;;;;;5073357;27;47239;-78
2022/02/19 08:17:57;;;;;;;20.20;2.87;;;6.40;99.90;;;;;;5084472;28;37733;-80
2022/02/19 08:20:23;;;;;;;21.27;3.23;;;6.30;99.90;;;;;;5082917;27;40336;-79
2022/02/19 08:22:49;;;;;;;18.80;3.03;;;6.30;99.90;;;;;;5081269;27;39016;-77
2022/02/19 08:25:15;;;;;;;22.30;3.40;;;6.30;99.90;;;;;;5091936;27;37833;-79
2022/02/19 08:27:42;;;;;;;19.90;3.10;;;6.30;99.90;;;;;;5083221;27;36908;-79
2022/02/19 08:30:09;;;;;;;20.23;2.60;;;6.30;99.90;;;;;;5085696;27;38479;-78
2022/02/19 08:32:35;;;;;;;16.93;2.37;;;6.40;99.90;;;;;;5083548;27;39209;-79
2022/02/19 08:35:01;;;;;;;18.00;2.37;;;6.50;99.90;;;;;;5083207;27;38679;-79
2022/02/19 08:37:31;;;;;;;15.40;2.47;;;6.60;99.90;;;;;;5091874;27;48438;-79
2022/02/19 08:39:57;;;;;;;18.27;3.00;;;6.60;99.90;;;;;;5080024;28;39390;-79
2022/02/19 08:42:23;;;;;;;15.53;3.00;;;6.60;99.90;;;;;;5073687;27;38503;-79
2022/02/19 08:44:50;;;;;;;15.83;2.83;;;6.60;99.90;;;;;;5080158;27;38670;-78
2022/02/19 08:47:16;;;;;;;19.07;2.63;;;6.70;99.90;;;;;;5087658;27;37384;-78
2022/02/19 08:49:42;;;;;;;20.90;2.57;;;6.80;99.90;;;;;;5077125;28;39542;-79
2022/02/19 08:52:08;;;;;;;12.37;2.50;;;6.80;99.90;;;;;;5074158;27;39480;-78
2022/02/19 08:54:35;;;;;;;14.83;2.27;;;6.80;99.90;;;;;;5103275;27;38377;-79
2022/02/19 08:57:02;;;;;;;13.63;2.60;;;6.90;99.90;;;;;;5087760;27;37220;-79
2022/02/19 08:59:28;;;;;;;14.87;2.40;;;6.90;99.90;;;;;;5062894;28;47042;-78
2022/02/19 09:01:56;;;;;;;12.43;2.67;;;6.90;99.90;;;;;;5074158;28;38563;-79
2022/02/19 09:04:22;;;;;;;15.37;2.03;;;7.00;99.90;;;;;;5079327;27;38207;-78
2022/02/19 09:06:48;;;;;;;19.73;2.63;;;7.00;99.90;;;;;;5079898;27;37179;-79
2022/02/19 09:09:14;;;;;;;16.93;2.10;;;7.00;99.90;;;;;;5073625;27;39893;-78
2022/02/19 09:11:41;;;;;;;17.60;3.00;;;7.00;99.90;;;;;;5086655;27;39033;-79
2022/02/19 09:14:07;;;;;;;15.47;2.93;;;7.00;99.90;;;;;;5082067;27;39076;-78
2022/02/19 09:16:34;;;;;;;12.60;2.53;;;7.00;99.90;;;;;;5067465;28;38130;-79
2022/02/19 09:19:01;;;;;;;13.17;2.80;;;7.00;99.90;;;;;;5072783;28;39589;-78
2022/02/19 09:21:28;;;;;;;13.50;2.37;;;6.90;99.90;;;;;;5079515;27;49061;-78
2022/02/19 09:23:54;;;;;;;14.10;2.33;;;6.90;99.90;;;;;;5075390;27;38508;-78
2022/02/19 09:26:21;;;;;;;9.57;2.10;;;6.90;99.90;;;;;;5076850;27;37656;-78
2022/02/19 09:28:48;;;;;;;12.90;2.10;;;6.80;99.90;;;;;;5070250;28;40247;-79
2022/02/19 09:31:15;;;;;;;12.33;2.20;;;6.80;99.90;;;;;;5072130;27;39495;-78
2022/02/19 09:33:41;;;;;;;10.37;3.07;;;6.90;99.90;;;;;;5075273;28;37234;-79
2022/02/19 09:36:08;;;;;;;16.37;2.77;;;7.00;99.90;;;;;;5087613;27;37722;-79
2022/02/19 09:38:35;;;;;;;11.20;2.43;;;7.20;99.90;;;;;;5081421;27;40161;-78
2022/02/19 09:41:02;;;;;;;12.83;2.93;;;7.30;99.90;;;;;;5086916;27;38469;-80
2022/02/19 09:43:29;;;;;;;25.17;3.03;;;7.40;99.90;;;;;;5081492;28;47238;-79
2022/02/19 09:45:55;;;;;;;15.57;2.63;;;7.50;99.90;;;;;;5084438;28;36046;-80
2022/02/19 09:48:21;;;;;;;13.57;2.57;;;7.50;99.90;;;;;;5080146;27;39287;-80
2022/02/19 09:50:51;;;;;;;12.30;2.00;;;7.40;99.90;;;;;;5090993;27;39967;-78
2022/02/19 09:53:18;;;;;;;16.47;2.50;;;7.30;99.90;;;;;;5077261;27;39032;-77
2022/02/19 09:55:44;;;;;;;22.27;2.83;;;7.30;99.90;;;;;;5087563;28;38950;-79
2022/02/19 09:58:10;;;;;;;14.27;2.20;;;7.40;99.90;;;;;;5086254;27;40131;-79
2022/02/19 10:00:39;;;;;;;14.33;2.90;;;7.50;99.90;;;;;;5082598;27;39344;-79
2022/02/19 10:03:32;;;;;;;16.80;2.80;;;7.70;99.90;;;;;;5083365;27;39012;-79
2022/02/19 10:06:10;;;;;;;20.07;4.30;;;8.00;99.90;;;;;;5065354;27;38569;-79
2022/02/19 10:08:37;;;;;;;13.43;3.30;;;8.10;99.90;;;;;;5082424;28;47477;-79
2022/02/19 10:11:04;;;;;;;15.47;2.63;;;8.20;99.90;;;;;;5084735;27;39162;-78
2022/02/19 10:13:38;;;;;;;17.60;2.40;;;8.30;99.90;;;;;;5082516;28;38328;-79
2022/02/19 10:16:06;;;;;;;20.93;3.23;;;8.10;99.90;;;;;;5075795;27;37875;-78
2022/02/19 10:18:43;;;;;;;13.47;2.23;;;8.00;99.90;;;;;;5082078;27;40094;-79
2022/02/19 10:21:19;;;;;;;17.93;2.43;;;7.90;99.90;;;;;;5079564;27;38520;-80
2022/02/19 10:23:56;;;;;;;10.63;2.40;;;7.70;99.90;;;;;;5076419;28;39762;-79
2022/02/19 10:26:27;;;;;;;15.77;2.30;;;7.60;99.90;;;;;;5085534;27;36096;-79
2022/02/19 10:28:58;;;;;;;16.70;2.53;;;7.70;99.90;;;;;;5084115;28;40185;-79
2022/02/19 10:31:25;;;;;;;18.60;2.33;;;7.80;99.90;;;;;;5084577;27;38565;-79
2022/02/19 10:34:07;;;;;;;15.03;2.37;;;8.00;99.90;;;;;;5083331;28;38601;-79
2022/02/19 10:36:50;;;;;;;15.50;2.75;;;8.00;99.90;;;;;;5067645;28;47370;-79
2022/02/19 10:39:34;;;;;;;15.13;2.43;;;8.00;99.90;;;;;;5084426;27;39493;-79
2022/02/19 10:42:05;;;;;;;11.93;2.10;;;8.00;99.90;;;;;;5084838;28;38605;-79
2022/02/19 10:44:33;;;;;;;17.20;2.00;;;7.90;99.90;;;;;;5084320;28;47166;-79
2022/02/19 10:47:19;;;;;;;17.83;3.47;;;7.90;99.90;;;;;;5087497;28;37431;-79
2022/02/19 10:50:07;;;;;;;16.63;2.20;;;8.00;99.90;;;;;;5086857;28;49767;-79
2022/02/19 10:52:34;;;;;;;17.87;2.37;;;8.20;99.90;;;;;;5081790;28;48912;-79
2022/02/19 10:55:17;;;;;;;16.67;2.20;;;8.20;99.90;;;;;;5081708;28;39491;-79
2022/02/19 10:57:45;;;;;;;17.42;2.33;;;8.20;99.90;;;;;;5084937;27;49930;-79
2022/02/19 11:00:17;;;;;;;16.70;3.13;;;8.10;99.90;;;;;;5085725;27;41235;-79
2022/02/19 11:02:46;;;;;;;15.50;2.40;;;8.00;99.90;;;;;;5087483;27;38279;-79
2022/02/19 11:05:14;;;;;;;13.43;2.57;;;8.10;99.90;;;;;;5083566;27;37335;-79
2022/02/19 11:07:42;;;;;;;18.10;3.53;;;8.20;99.90;;;;;;5079503;28;35827;-80
2022/02/19 11:10:15;;;;;;;10.80;1.90;;;8.50;99.90;;;;;;5070603;27;38752;-80
2022/02/19 11:12:42;;;;;;;16.63;2.15;;;8.60;99.90;;;;;;5087240;27;39314;-80
2022/02/19 11:15:10;;;;;;;15.10;2.77;;;8.60;99.90;;;;;;5085133;27;38936;-80
2022/02/19 11:17:36;;;;;;;14.77;2.70;;;8.70;99.90;;;;;;5085847;28;38005;-80
2022/02/19 11:20:08;;;;;;;9.73;1.77;;;8.80;99.90;;;;;;5087791;27;39310;-79
2022/02/19 11:22:36;;;;;;;14.90;2.28;;;8.80;99.90;;;;;;5087590;27;38515;-81
2022/02/19 11:25:08;;;;;;;10.37;2.10;;;8.80;99.90;;;;;;5073259;28;39043;-79
2022/02/19 11:27:39;;;;;;;9.50;1.50;;;8.80;99.90;;;;;;5087507;27;48925;-79
2022/02/19 11:30:08;;;;;;;17.73;2.10;;;8.90;99.90;;;;;;5084450;27;38717;-79
2022/02/19 11:32:41;;;;;;;14.63;2.27;;;8.90;99.90;;;;;;5085061;28;39661;-80
2022/02/19 11:35:09;;;;;;;17.63;2.67;;;9.00;99.90;;;;;;5083367;27;38171;-80
2022/02/19 11:37:41;;;;;;;11.17;1.90;;;8.90;99.90;;;;;;5084338;28;36384;-80
2022/02/19 11:40:16;;;;;;;15.57;2.20;;;8.80;99.90;;;;;;5078677;28;38825;-79
2022/02/19 11:42:50;;;;;;;12.73;2.20;;;8.80;99.90;;;;;;5075730;28;38461;-80
2022/02/19 11:45:21;;;;;;;13.23;2.27;;;9.10;99.90;;;;;;5082686;28;38555;-80
2022/02/19 11:47:48;;;;;;;11.97;1.73;;;9.10;99.90;;;;;;5084461;28;37435;-80
2022/02/19 11:50:25;;;;;;;14.67;2.13;;;9.30;99.90;;;;;;5095361;27;39421;-80
2022/02/19 11:53:09;;;;;;;15.13;2.40;;;9.40;99.90;;;;;;5095463;27;38250;-80
2022/02/19 11:55:39;;;;;;;17.70;2.33;;;9.50;99.90;;;;;;5082542;27;48525;-77
2022/02/19 11:58:11;;;;;;;13.43;1.90;;;9.50;99.90;;;;;;5088996;27;37872;-79
2022/02/19 12:01:04;;;;;;;10.20;1.93;;;9.30;99.90;;;;;;5088353;27;38553;-79
2022/02/19 12:03:34;;;;;;;13.17;2.20;;;9.10;99.90;;;;;;5075445;28;47278;-79
2022/02/19 12:06:23;;;;;;;15.02;2.40;;;9.10;99.90;;;;;;5084142;28;39036;-80
2022/02/19 12:08:49;;;;;;;16.57;2.47;;;9.20;99.90;;;;;;5078586;28;47328;-80
2022/02/19 12:11:20;;;;;;;11.80;2.23;;;9.30;99.90;;;;;;5082524;27;39937;-79
2022/02/19 12:13:47;;;;;;;16.37;2.60;;;9.40;99.90;;;;;;5084826;28;38181;-79
2022/02/19 12:16:31;;;;;;;12.30;2.47;;;9.50;99.90;;;;;;5082574;27;38486;-79
2022/02/19 12:19:11;;;;;;;14.53;2.20;;;9.50;99.90;;;;;;5080795;27;39250;-79
2022/02/19 12:21:45;;;;;;;12.37;2.47;;;9.60;99.90;;;;;;5084849;28;46350;-80
2022/02/19 12:24:19;;;;;;;18.80;2.30;;;9.60;99.90;;;;;;5085801;27;38458;-77
2022/02/19 12:29:35;;;;;;;14.73;2.30;;;9.60;99.90;;;;;;5084782;27;38498;-80
2022/02/19 12:32:20;;;;;;;15.53;2.00;;;9.40;99.90;;;;;;5085521;27;39867;-79
2022/02/19 12:34:58;;;;;;;15.80;2.23;;;9.50;99.90;;;;;;5081899;27;38350;-79
2022/02/19 12:37:32;;;;;;;10.00;2.20;;;9.50;99.90;;;;;;5096017;27;37249;-79
2022/02/19 12:39:58;;;;;;;11.63;2.27;;;9.60;99.90;;;;;;5079423;27;36648;-80
2022/02/19 12:42:26;;;;;;;12.63;2.50;;;9.70;99.90;;;;;;5085298;27;38141;-79
2022/02/19 12:45:09;;;;;;;17.30;4.27;;;9.80;99.90;;;;;;5081236;28;38324;-77
2022/02/19 12:47:38;;;;;;;14.33;2.83;;;9.90;99.90;;;;;;5090852;27;48500;-77
2022/02/19 12:50:06;;;;;;;17.33;3.60;;;10.00;99.90;;;;;;5086593;27;36675;-76
2022/02/19 12:52:32;;;;;;;15.93;2.67;;;10.00;99.90;;;;;;5087298;27;38869;-77
2022/02/19 12:54:59;;;;;;;19.37;2.90;;;10.00;99.90;;;;;;5090174;27;38760;-77
2022/02/19 12:57:25;;;;;;;13.40;2.10;;;10.00;99.90;;;;;;5078578;28;38819;-78
2022/02/19 12:59:54;;;;;;;12.68;2.20;;;9.90;99.90;;;;;;5075872;28;37301;-78
2022/02/19 13:02:25;;;;;;;15.03;2.10;;;9.70;99.90;;;;;;5088606;27;39171;-77